^^
Datos históricos de la estación: Murcia-Puente Tocinos
Diario Informe para Diciembre 10, 2019 Unidades:  Ambas    Ingés   Métrico
Diario Semanal Mensual Anual
  Máxima: Mínima: Promedio:
Temperatura: 68.5 °F /  20.3 °C 51.8 °F /  11 °C 58.8 °F /  14.9 °C
Punto de rocio: 44.8 °F /  7.1 °C 32.9 °F /  0.5 °C 37.6 °F /  3.1 °C
Humedad: 69% 29.3% 46%
Velocidad viento: 12.5mph /  20.1km/h - 5.8mph /  9.4km/h
Racha viento: 23.5mph /  37.8km/h - -
Viento- - SO
Presión: 30.3 in /  1026.2 hPa 30.2 in /  1022.0 hPa -
Precipitación: 0 in /  0.0 mm    
 
 
Tabla de datos para Diciembre 10, 2019
Hora Temperatura Punto de rocio Presión Viento Velocidad viento Racha viento Humedad Intensidad lluvia(por hora) Nubes
00:04 60.4 °F /  15.8 °C 40.1 °F /  4.5 °C 30.3in /  1025.8hPa OSO 9.1mph /  14.7km/h 15mph /  24.1km/h 47% 0in /  0.0mm
00:09 60.4 °F /  15.8 °C 40.1 °F /  4.5 °C 30.3in /  1025.9hPa SO 7.6mph /  12.2km/h 9mph /  14.5km/h 47% 0in /  0.0mm
00:14 60.3 °F /  15.7 °C 39.9 °F /  4.4 °C 30.3in /  1025.9hPa SSO 5.7mph /  9.2km/h 9mph /  14.5km/h 47% 0in /  0.0mm
00:19 60.3 °F /  15.7 °C 39.9 °F /  4.4 °C 30.3in /  1025.9hPa Sur 4.3mph /  6.9km/h 10.4mph /  16.7km/h 47% 0in /  0.0mm
00:24 60.3 °F /  15.7 °C 40.3 °F /  4.6 °C 30.3in /  1026.2hPa SO 4.5mph /  7.3km/h 10mph /  16.1km/h 47.7% 0in /  0.0mm
00:29 60.3 °F /  15.7 °C 40.5 °F /  4.7 °C 30.3in /  1026.2hPa SO 4.7mph /  7.6km/h 11.5mph /  18.5km/h 48% 0in /  0.0mm
00:34 60.3 °F /  15.7 °C 40.5 °F /  4.7 °C 30.3in /  1026.2hPa SO 5.4mph /  8.7km/h 12mph /  19.3km/h 48% 0in /  0.0mm
00:39 60.1 °F /  15.6 °C 40.8 °F /  4.9 °C 30.3in /  1026.2hPa OSO 5.9mph /  9.5km/h 17mph /  27.4km/h 48.8% 0in /  0.0mm
00:44 60.1 °F /  15.6 °C 40.8 °F /  4.9 °C 30.3in /  1026.1hPa OSO 7.1mph /  11.5km/h 18.4mph /  29.6km/h 49% 0in /  0.0mm
00:49 60.1 °F /  15.6 °C 40.8 °F /  4.9 °C 30.3in /  1026.1hPa OSO 8.1mph /  13km/h 18mph /  29km/h 49% 0in /  0.0mm
00:54 60.1 °F /  15.6 °C 40.8 °F /  4.9 °C 30.3in /  1026.1hPa SO 8.1mph /  13km/h 17mph /  27.4km/h 49% 0in /  0.0mm
00:59 59.7 °F /  15.4 °C 40.8 °F /  4.9 °C 30.3in /  1026.0hPa SO 8.1mph /  13km/h 13mph /  20.9km/h 49.5% 0in /  0.0mm
01:04 59.7 °F /  15.4 °C 41 °F /  5 °C 30.3in /  1026.0hPa SSO 6.5mph /  10.5km/h 10mph /  16.1km/h 50% 0in /  0.0mm
01:09 59.5 °F /  15.3 °C 40.8 °F /  4.9 °C 30.3in /  1026.1hPa SO 5.4mph /  8.7km/h 9mph /  14.5km/h 49.7% 0in /  0.0mm
01:14 59.5 °F /  15.3 °C 40.5 °F /  4.7 °C 30.3in /  1026.1hPa SO 5mph /  8.1km/h 13.7mph /  22km/h 49.2% 0in /  0.0mm
01:19 59.5 °F /  15.3 °C 39.9 °F /  4.4 °C 30.3in /  1026.1hPa OSO 4.7mph /  7.6km/h 14mph /  22.5km/h 48.5% 0in /  0.0mm
01:24 59.5 °F /  15.3 °C 39.4 °F /  4.1 °C 30.3in /  1026.1hPa OSO 6mph /  9.6km/h 15.9mph /  25.6km/h 47.3% 0in /  0.0mm
01:29 59.7 °F /  15.4 °C 39 °F /  3.9 °C 30.3in /  1026.0hPa OSO 6.9mph /  11.1km/h 16.3mph /  26.2km/h 46.2% 0in /  0.0mm
01:34 59.7 °F /  15.4 °C 39 °F /  3.9 °C 30.3in /  1026.0hPa SO 8.2mph /  13.2km/h 16mph /  25.7km/h 46% 0in /  0.0mm
01:39 59.5 °F /  15.3 °C 38.7 °F /  3.7 °C 30.3in /  1026.0hPa SO 9.2mph /  14.8km/h 16.1mph /  25.9km/h 45.8% 0in /  0.0mm
01:44 59.5 °F /  15.3 °C 38.3 °F /  3.5 °C 30.3in /  1026.0hPa SO 7.9mph /  12.7km/h 16mph /  25.7km/h 45.1% 0in /  0.0mm
01:49 59.5 °F /  15.3 °C 38.1 °F /  3.4 °C 30.3in /  1026.0hPa SO 6.9mph /  11.1km/h 11.5mph /  18.5km/h 45% 0in /  0.0mm
01:54 59.5 °F /  15.3 °C 38.1 °F /  3.4 °C 30.3in /  1026.2hPa SO 6.6mph /  10.7km/h 12mph /  19.3km/h 45% 0in /  0.0mm
01:59 59.5 °F /  15.3 °C 38.1 °F /  3.4 °C 30.3in /  1026.2hPa SO 6.4mph /  10.3km/h 11mph /  17.7km/h 45% 0in /  0.0mm
02:04 59.4 °F /  15.2 °C 38.1 °F /  3.4 °C 30.3in /  1026.2hPa OSO 6.7mph /  10.8km/h 15mph /  24.1km/h 45% 0in /  0.0mm
02:09 59.4 °F /  15.2 °C 37.9 °F /  3.3 °C 30.3in /  1026.2hPa SO 6.9mph /  11.1km/h 15mph /  24.1km/h 45% 0in /  0.0mm
02:14 59.4 °F /  15.2 °C 37.6 °F /  3.1 °C 30.3in /  1025.9hPa OSO 7.3mph /  11.7km/h 16.1mph /  25.9km/h 44.3% 0in /  0.0mm
02:19 59.4 °F /  15.2 °C 37.4 °F /  3 °C 30.3in /  1025.9hPa OSO 7.6mph /  12.2km/h 16mph /  25.7km/h 44% 0in /  0.0mm
02:24 59.4 °F /  15.2 °C 37.4 °F /  3 °C 30.3in /  1025.9hPa SO 8.3mph /  13.3km/h 14mph /  22.5km/h 44% 0in /  0.0mm
02:29 59.2 °F /  15.1 °C 37.2 °F /  2.9 °C 30.3in /  1025.9hPa OSO 8.7mph /  14km/h 13.8mph /  22.2km/h 44% 0in /  0.0mm
02:34 59.2 °F /  15.1 °C 37.2 °F /  2.9 °C 30.3in /  1025.9hPa Oeste 8.1mph /  13km/h 15mph /  24.1km/h 44% 0in /  0.0mm
02:39 59 °F /  15 °C 37 °F /  2.8 °C 30.3in /  1025.9hPa Oeste 7.6mph /  12.2km/h 15mph /  24.1km/h 44% 0in /  0.0mm
02:44 59 °F /  15 °C 37 °F /  2.8 °C 30.3in /  1025.7hPa OSO 7.6mph /  12.2km/h 14mph /  22.5km/h 44% 0in /  0.0mm
02:49 58.8 °F /  14.9 °C 37 °F /  2.8 °C 30.3in /  1025.7hPa OSO 7.6mph /  12.2km/h 14.5mph /  23.3km/h 44% 0in /  0.0mm
02:54 58.8 °F /  14.9 °C 37 °F /  2.8 °C 30.3in /  1025.7hPa SO 6.8mph /  11km/h 15mph /  24.1km/h 44% 0in /  0.0mm
02:59 58.8 °F /  14.9 °C 36.9 °F /  2.7 °C 30.3in /  1025.6hPa SO 6.2mph /  10km/h 15mph /  24.1km/h 44% 0in /  0.0mm
03:04 58.6 °F /  14.8 °C 36.9 °F /  2.7 °C 30.3in /  1025.6hPa SSO 5.3mph /  8.5km/h 9.2mph /  14.8km/h 44% 0in /  0.0mm
03:09 58.5 °F /  14.7 °C 37 °F /  2.8 °C 30.3in /  1025.9hPa SO 4.7mph /  7.6km/h 9.7mph /  15.6km/h 44.7% 0in /  0.0mm
03:14 58.5 °F /  14.7 °C 37 °F /  2.8 °C 30.3in /  1025.9hPa SO 5.5mph /  8.9km/h 11.5mph /  18.5km/h 45% 0in /  0.0mm
03:19 58.3 °F /  14.6 °C 37 °F /  2.8 °C 30.3in /  1025.9hPa SSO 6.2mph /  10km/h 12mph /  19.3km/h 45% 0in /  0.0mm
03:24 58.3 °F /  14.6 °C 37 °F /  2.8 °C 30.3in /  1025.9hPa SSO 6mph /  9.7km/h 9.2mph /  14.8km/h 45% 0in /  0.0mm
03:29 58.3 °F /  14.6 °C 37 °F /  2.8 °C 30.3in /  1025.5hPa SSO 5.9mph /  9.5km/h 9.2mph /  14.8km/h 45% 0in /  0.0mm
03:34 58.3 °F /  14.6 °C 37 °F /  2.8 °C 30.3in /  1025.5hPa SSO 5.9mph /  9.5km/h 9.2mph /  14.8km/h 45% 0in /  0.0mm
03:39 58.1 °F /  14.5 °C 36.9 °F /  2.7 °C 30.3in /  1025.6hPa Sur 5.9mph /  9.5km/h 9.2mph /  14.8km/h 44.8% 0in /  0.0mm
03:44 57.9 °F /  14.4 °C 36.7 °F /  2.6 °C 30.3in /  1025.6hPa Sur 6.2mph /  10km/h 10.7mph /  17.2km/h 45% 0in /  0.0mm
03:49 57.7 °F /  14.3 °C 36.7 °F /  2.6 °C 30.3in /  1025.6hPa Sur 6.4mph /  10.3km/h 11mph /  17.7km/h 45% 0in /  0.0mm
03:54 57.7 °F /  14.3 °C 36.5 °F /  2.5 °C 30.3in /  1025.6hPa Sur 5.8mph /  9.4km/h 10.4mph /  16.7km/h 45% 0in /  0.0mm
03:59 57.6 °F /  14.2 °C 36.1 °F /  2.3 °C 30.3in /  1025.5hPa Sur 5.4mph /  8.7km/h 10.7mph /  17.2km/h 44.6% 0in /  0.0mm
04:04 57.7 °F /  14.3 °C 36 °F /  2.2 °C 30.3in /  1025.5hPa SSO 5.9mph /  9.5km/h 13.8mph /  22.2km/h 44% 0in /  0.0mm
04:09 57.7 °F /  14.3 °C 35.8 °F /  2.1 °C 30.3in /  1025.5hPa SO 6.2mph /  10km/h 14mph /  22.5km/h 43.5% 0in /  0.0mm
04:14 57.9 °F /  14.4 °C 35.4 °F /  1.9 °C 30.3in /  1025.1hPa SO 7.6mph /  12.3km/h 17.5mph /  28.2km/h 43% 0in /  0.0mm
04:19 58.3 °F /  14.6 °C 35.1 °F /  1.7 °C 30.3in /  1025.1hPa OSO 8.7mph /  14km/h 21.9mph /  35.2km/h 41.9% 0in /  0.0mm
04:24 58.6 °F /  14.8 °C 34.9 °F /  1.6 °C 30.3in /  1025.1hPa OSO 10.2mph /  16.4km/h 22mph /  35.4km/h 41% 0in /  0.0mm
04:29 58.8 °F /  14.9 °C 34.5 °F /  1.4 °C 30.3in /  1025.1hPa OSO 11.4mph /  18.4km/h 21mph /  33.8km/h 40.1% 0in /  0.0mm
04:34 58.8 °F /  14.9 °C 34.5 °F /  1.4 °C 30.3in /  1025.1hPa SO 11.3mph /  18.2km/h 21mph /  33.8km/h 40% 0in /  0.0mm
04:39 58.8 °F /  14.9 °C 34.5 °F /  1.4 °C 30.3in /  1025.1hPa SO 11.2mph /  18km/h 16.3mph /  26.2km/h 40% 0in /  0.0mm
04:44 58.6 °F /  14.8 °C 34.3 °F /  1.3 °C 30.3in /  1025.0hPa SO 9.2mph /  14.8km/h 16mph /  25.7km/h 40% 0in /  0.0mm
04:49 58.5 °F /  14.7 °C 34.5 °F /  1.4 °C 30.3in /  1025.0hPa SO 7.6mph /  12.2km/h 15mph /  24.1km/h 40.7% 0in /  0.0mm
04:54 57.9 °F /  14.4 °C 35.4 °F /  1.9 °C 30.3in /  1025.0hPa SSO 7.9mph /  12.7km/h 14mph /  22.5km/h 42.7% 0in /  0.0mm
04:59 57.6 °F /  14.2 °C 35.2 °F /  1.8 °C 30.3in /  1025.0hPa SO 8.1mph /  13km/h 13.8mph /  22.2km/h 43% 0in /  0.0mm
05:04 57.4 °F /  14.1 °C 34.9 °F /  1.6 °C 30.3in /  1025.0hPa SO 7.8mph /  12.6km/h 14mph /  22.5km/h 43% 0in /  0.0mm
05:09 57.4 °F /  14.1 °C 34.9 °F /  1.6 °C 30.3in /  1025.0hPa SO 7.6mph /  12.2km/h 19mph /  30.6km/h 43% 0in /  0.0mm
05:14 57.4 °F /  14.1 °C 35.1 °F /  1.7 °C 30.3in /  1024.8hPa SO 8.8mph /  14.2km/h 19mph /  30.6km/h 43% 0in /  0.0mm
05:19 57.4 °F /  14.1 °C 35.1 °F /  1.7 °C 30.3in /  1024.8hPa SO 9.7mph /  15.6km/h 14mph /  22.5km/h 43% 0in /  0.0mm
05:24 57.2 °F /  14 °C 34.9 °F /  1.6 °C 30.3in /  1024.9hPa SSO 9mph /  14.5km/h 16.1mph /  25.9km/h 43% 0in /  0.0mm
05:29 56.8 °F /  13.8 °C 34.9 °F /  1.6 °C 30.3in /  1024.9hPa SSO 8.5mph /  13.7km/h 16mph /  25.7km/h 43.4% 0in /  0.0mm
05:34 56.8 °F /  13.8 °C 35.1 °F /  1.7 °C 30.3in /  1024.9hPa SSO 8mph /  12.8km/h 14mph /  22.5km/h 44% 0in /  0.0mm
05:39 56.7 °F /  13.7 °C 35.1 °F /  1.7 °C 30.3in /  1024.9hPa OSO 7.6mph /  12.2km/h 12mph /  19.3km/h 44% 0in /  0.0mm
05:44 56.5 °F /  13.6 °C 35.2 °F /  1.8 °C 30.3in /  1024.9hPa OSO 6.8mph /  11km/h 11.8mph /  19km/h 44.8% 0in /  0.0mm
05:49 56.3 °F /  13.5 °C 34.9 °F /  1.6 °C 30.3in /  1024.9hPa SO 6.2mph /  10km/h 13.8mph /  22.2km/h 44.4% 0in /  0.0mm
05:54 56.5 °F /  13.6 °C 34.5 °F /  1.4 °C 30.3in /  1024.9hPa OSO 7mph /  11.3km/h 14mph /  22.5km/h 43.4% 0in /  0.0mm
05:59 56.7 °F /  13.7 °C 34.3 °F /  1.3 °C 30.3in /  1024.7hPa SO 7.6mph /  12.2km/h 14mph /  22.5km/h 43% 0in /  0.0mm
06:04 56.7 °F /  13.7 °C 34.3 °F /  1.3 °C 30.3in /  1024.7hPa SO 7.5mph /  12km/h 14mph /  22.5km/h 43% 0in /  0.0mm
06:09 56.5 °F /  13.6 °C 34.5 °F /  1.4 °C 30.3in /  1024.8hPa SO 7.4mph /  11.9km/h 10.7mph /  17.2km/h 43.5% 0in /  0.0mm
06:14 55.9 °F /  13.3 °C 34.5 °F /  1.4 °C 30.3in /  1024.8hPa OSO 6.7mph /  10.8km/h 11.5mph /  18.5km/h 44.5% 0in /  0.0mm
06:19 55.4 °F /  13 °C 34.5 °F /  1.4 °C 30.3in /  1024.8hPa OSO 6.2mph /  10km/h 12mph /  19.3km/h 45.3% 0in /  0.0mm
06:24 55 °F /  12.8 °C 34.7 °F /  1.5 °C 30.3in /  1024.8hPa SO 6mph /  9.7km/h 10mph /  16.1km/h 46% 0in /  0.0mm
06:29 55 °F /  12.8 °C 34.5 °F /  1.4 °C 30.3in /  1024.7hPa SO 5.9mph /  9.5km/h 10.7mph /  17.2km/h 46% 0in /  0.0mm
06:34 55 °F /  12.8 °C 34.3 °F /  1.3 °C 30.3in /  1024.7hPa OSO 5.6mph /  9km/h 11mph /  17.7km/h 45.5% 0in /  0.0mm
06:39 55 °F /  12.8 °C 34.2 °F /  1.2 °C 30.3in /  1024.7hPa SO 5.4mph /  8.7km/h 10.7mph /  17.2km/h 45% 0in /  0.0mm
06:44 55.2 °F /  12.9 °C 34.2 °F /  1.2 °C 30.3in /  1024.7hPa SO 5.8mph /  9.4km/h 11mph /  17.7km/h 45% 0in /  0.0mm
06:49 55.2 °F /  12.9 °C 34.2 °F /  1.2 °C 30.3in /  1024.7hPa SSO 6.2mph /  10km/h 10mph /  16.1km/h 44.7% 0in /  0.0mm
06:54 55 °F /  12.8 °C 34.2 °F /  1.2 °C 30.3in /  1024.7hPa Sur 5.7mph /  9.2km/h 9.7mph /  15.6km/h 45% 0in /  0.0mm
06:59 54.7 °F /  12.6 °C 34.3 °F /  1.3 °C 30.3in /  1024.7hPa Sur 5.4mph /  8.7km/h 10mph /  16.1km/h 45.9% 0in /  0.0mm
07:04 54.1 °F /  12.3 °C 34.2 °F /  1.2 °C 30.3in /  1024.7hPa SSO 4.7mph /  7.6km/h 9mph /  14.5km/h 46.5% 0in /  0.0mm
07:09 54.1 °F /  12.3 °C 34.3 °F /  1.3 °C 30.3in /  1024.8hPa OSO 4.3mph /  6.9km/h 5mph /  8km/h 47% 0in /  0.0mm
07:14 54 °F /  12.2 °C 34.5 °F /  1.4 °C 30.3in /  1024.8hPa Oeste 3mph /  4.9km/h 5mph /  8km/h 47.6% 0in /  0.0mm
07:19 53.6 °F /  12 °C 34.5 °F /  1.4 °C 30.3in /  1024.8hPa ONO 2mph /  3.2km/h 6.4mph /  10.3km/h 48.4% 0in /  0.0mm
07:24 53.4 °F /  11.9 °C 34.3 °F /  1.3 °C 30.3in /  1025.2hPa Oeste 2mph /  3.2km/h 7mph /  11.3km/h 48.3% 0in /  0.0mm
07:29 53.2 °F /  11.8 °C 34 °F /  1.1 °C 30.3in /  1025.2hPa OSO 2mph /  3.2km/h 9.2mph /  14.8km/h 47.7% 0in /  0.0mm
07:34 53.8 °F /  12.1 °C 33.6 °F /  0.9 °C 30.3in /  1025.2hPa SO 3.5mph /  5.7km/h 11.4mph /  18.3km/h 46.5% 0in /  0.0mm
07:39 54.3 °F /  12.4 °C 33.3 °F /  0.7 °C 30.3in /  1025.2hPa OSO 4.7mph /  7.6km/h 12.7mph /  20.4km/h 44.9% 0in /  0.0mm
07:44 54.7 °F /  12.6 °C 33.1 °F /  0.6 °C 30.3in /  1024.8hPa OSO 6.2mph /  10km/h 17.3mph /  27.8km/h 43.7% 0in /  0.0mm
07:49 55 °F /  12.8 °C 33.3 °F /  0.7 °C 30.3in /  1024.8hPa OSO 7.4mph /  11.9km/h 17mph /  27.4km/h 43.6% 0in /  0.0mm
07:54 54.9 °F /  12.7 °C 33.4 °F /  0.8 °C 30.3in /  1024.9hPa Oeste 7.5mph /  12.1km/h 12mph /  19.3km/h 44.5% 0in /  0.0mm
07:59 54.5 °F /  12.5 °C 33.6 °F /  0.9 °C 30.3in /  1024.9hPa SO 7.6mph /  12.2km/h 11.5mph /  18.5km/h 45% 0in /  0.0mm
08:04 54.7 °F /  12.6 °C 33.6 °F /  0.9 °C 30.3in /  1024.9hPa Oeste 5.7mph /  9.1km/h 12mph /  19.3km/h 45% 0in /  0.0mm
08:09 54.7 °F /  12.6 °C 33.6 °F /  0.9 °C 30.3in /  1025.1hPa Oeste 4.3mph /  6.9km/h 8.1mph /  13km/h 45% 0in /  0.0mm
08:14 54.7 °F /  12.6 °C 33.6 °F /  0.9 °C 30.3in /  1025.1hPa OSO 3.9mph /  6.3km/h 8.1mph /  13km/h 45% 0in /  0.0mm
08:19 54.7 °F /  12.6 °C 33.6 °F /  0.9 °C 30.3in /  1025.1hPa SSO 3.6mph /  5.8km/h 8.5mph /  13.7km/h 44.9% 0in /  0.0mm
08:24 54.5 °F /  12.5 °C 33.6 °F /  0.9 °C 30.3in /  1025.1hPa SSE 4.2mph /  6.8km/h 10.7mph /  17.2km/h 45% 0in /  0.0mm
08:29 54.3 °F /  12.4 °C 33.4 °F /  0.8 °C 30.3in /  1025.0hPa SSE 4.7mph /  7.6km/h 13.8mph /  22.2km/h 45% 0in /  0.0mm
08:34 54.3 °F /  12.4 °C 33.4 °F /  0.8 °C 30.3in /  1025.0hPa SSE 5.7mph /  9.1km/h 14mph /  22.5km/h 45% 0in /  0.0mm
08:39 54.3 °F /  12.4 °C 33.4 °F /  0.8 °C 30.3in /  1025.4hPa SSO 6.4mph /  10.3km/h 7.6mph /  12.2km/h 45% 0in /  0.0mm
08:44 54.1 °F /  12.3 °C 33.8 °F /  1 °C 30.3in /  1025.4hPa SO 5.5mph /  8.8km/h 9.7mph /  15.6km/h 45.8% 0in /  0.0mm
08:49 54.1 °F /  12.3 °C 33.8 °F /  1 °C 30.3in /  1025.4hPa SO 4.7mph /  7.6km/h 10mph /  16.1km/h 46% 0in /  0.0mm
08:54 54.3 °F /  12.4 °C 33.4 °F /  0.8 °C 30.3in /  1025.4hPa SSO 5.7mph /  9.1km/h 10mph /  16.1km/h 45% 0in /  0.0mm
08:59 54.9 °F /  12.7 °C 33.3 °F /  0.7 °C 30.3in /  1025.1hPa SSO 6.4mph /  10.3km/h 11.2mph /  18km/h 44% 0in /  0.0mm
09:04 55 °F /  12.8 °C 33.1 °F /  0.6 °C 30.3in /  1025.1hPa SO 7mph /  11.3km/h 12mph /  19.3km/h 43% 0in /  0.0mm
09:09 55.2 °F /  12.9 °C 33.1 °F /  0.6 °C 30.3in /  1025.1hPa SO 7.4mph /  11.9km/h 10mph /  16.1km/h 43% 0in /  0.0mm
09:14 55.6 °F /  13.1 °C 33.3 °F /  0.7 °C 30.3in /  1025.1hPa Sur 6.2mph /  10km/h 9mph /  14.5km/h 42.8% 0in /  0.0mm
09:19 55.9 °F /  13.3 °C 33.1 °F /  0.6 °C 30.3in /  1025.1hPa Sur 5.2mph /  8.4km/h 9.2mph /  14.8km/h 41.9% 0in /  0.0mm
09:24 56.3 °F /  13.5 °C 33.4 °F /  0.8 °C 30.3in /  1025.3hPa SSO 4mph /  6.4km/h 9mph /  14.5km/h 41.8% 0in /  0.0mm
09:29 56.5 °F /  13.6 °C 33.6 °F /  0.9 °C 30.3in /  1025.3hPa SO 3.1mph /  5km/h 9.2mph /  14.8km/h 42% 0in /  0.0mm
09:34 56.1 °F /  13.4 °C 33.6 °F /  0.9 °C 30.3in /  1025.3hPa SSO 3.8mph /  6.1km/h 9.2mph /  14.8km/h 42.5% 0in /  0.0mm
09:39 55.9 °F /  13.3 °C 33.8 °F /  1 °C 30.3in /  1025.3hPa Sur 4.3mph /  6.9km/h 9mph /  14.5km/h 43% 0in /  0.0mm
09:44 56.1 °F /  13.4 °C 34 °F /  1.1 °C 30.3in /  1025.1hPa SSE 4.9mph /  7.9km/h 9.2mph /  14.8km/h 43.2% 0in /  0.0mm
09:49 56.3 °F /  13.5 °C 34.2 °F /  1.2 °C 30.3in /  1025.1hPa Sur 5.4mph /  8.7km/h 12.3mph /  19.8km/h 43.2% 0in /  0.0mm
09:54 56.5 °F /  13.6 °C 34 °F /  1.1 °C 30.3in /  1025.1hPa Sur 6.5mph /  10.5km/h 13mph /  20.9km/h 42.8% 0in /  0.0mm
09:59 56.8 °F /  13.8 °C 33.8 °F /  1 °C 30.3in /  1024.8hPa Sur 7.4mph /  11.9km/h 12.7mph /  20.4km/h 41.9% 0in /  0.0mm
10:04 57.2 °F /  14 °C 33.4 °F /  0.8 °C 30.3in /  1024.8hPa SSO 7.8mph /  12.6km/h 13mph /  20.9km/h 40.5% 0in /  0.0mm
10:09 57.7 °F /  14.3 °C 33.1 °F /  0.6 °C 30.3in /  1024.8hPa SSO 8.1mph /  13km/h 12.7mph /  20.4km/h 39.4% 0in /  0.0mm
10:14 58.1 °F /  14.5 °C 33.3 °F /  0.7 °C 30.3in /  1024.8hPa SSO 8.1mph /  13km/h 15mph /  24.1km/h 39% 0in /  0.0mm
10:19 58.5 °F /  14.7 °C 33.1 °F /  0.6 °C 30.3in /  1024.8hPa SSO 8.1mph /  13km/h 15mph /  24.1km/h 38.4% 0in /  0.0mm
10:24 58.5 °F /  14.7 °C 32.9 °F /  0.5 °C 30.3in /  1025.1hPa SSO 8.3mph /  13.4km/h 15.2mph /  24.5km/h 38% 0in /  0.0mm
10:29 58.6 °F /  14.8 °C 33.1 °F /  0.6 °C 30.3in /  1025.1hPa SO 8.5mph /  13.7km/h 15mph /  24.1km/h 38% 0in /  0.0mm
10:34 58.8 °F /  14.9 °C 33.3 °F /  0.7 °C 30.3in /  1025.1hPa SO 7.3mph /  11.7km/h 12mph /  19.3km/h 38% 0in /  0.0mm
10:39 59.2 °F /  15.1 °C 33.6 °F /  0.9 °C 30.3in /  1025.1hPa OSO 6.4mph /  10.3km/h 15.2mph /  24.5km/h 38.3% 0in /  0.0mm
10:44 59 °F /  15 °C 33.8 °F /  1 °C 30.3in /  1025.1hPa Oeste 7mph /  11.2km/h 15mph /  24.1km/h 38.7% 0in /  0.0mm
10:49 58.8 °F /  14.9 °C 34 °F /  1.1 °C 30.3in /  1025.1hPa SO 7.4mph /  11.9km/h 15mph /  24.1km/h 39% 0in /  0.0mm
10:54 59 °F /  15 °C 34.2 °F /  1.2 °C 30.3in /  1025.5hPa SO 6.8mph /  11km/h 10.4mph /  16.7km/h 39.1% 0in /  0.0mm
10:59 59.5 °F /  15.3 °C 34.3 °F /  1.3 °C 30.3in /  1025.5hPa Sur 6.4mph /  10.3km/h 9.7mph /  15.6km/h 38.8% 0in /  0.0mm
11:04 59.7 °F /  15.4 °C 34 °F /  1.1 °C 30.3in /  1025.5hPa SSO 6.1mph /  9.8km/h 10.7mph /  17.2km/h 37.9% 0in /  0.0mm
11:09 59.9 °F /  15.5 °C 34 °F /  1.1 °C 30.3in /  1025.5hPa OSO 5.9mph /  9.5km/h 11.8mph /  19km/h 37.7% 0in /  0.0mm
11:14 60.1 °F /  15.6 °C 33.8 °F /  1 °C 30.3in /  1025.5hPa SO 6.2mph /  10km/h 12mph /  19.3km/h 37% 0in /  0.0mm
11:19 60.4 °F /  15.8 °C 33.8 °F /  1 °C 30.3in /  1025.5hPa OSO 6.4mph /  10.3km/h 11mph /  17.7km/h 36.7% 0in /  0.0mm
11:24 60.6 °F /  15.9 °C 33.6 °F /  0.9 °C 30.3in /  1025.6hPa SO 5.7mph /  9.2km/h 11.4mph /  18.3km/h 36.3% 0in /  0.0mm
11:29 60.8 °F /  16 °C 33.6 °F /  0.9 °C 30.3in /  1025.6hPa OSO 5.2mph /  8.4km/h 12mph /  19.3km/h 36% 0in /  0.0mm
11:34 61 °F /  16.1 °C 33.6 °F /  0.9 °C 30.3in /  1025.6hPa OSO 5.8mph /  9.3km/h 14.7mph /  23.7km/h 35.8% 0in /  0.0mm
11:39 61.2 °F /  16.2 °C 33.3 °F /  0.7 °C 30.3in /  1025.6hPa OSO 6.2mph /  10km/h 15mph /  24.1km/h 35% 0in /  0.0mm
11:44 61.3 °F /  16.3 °C 33.1 °F /  0.6 °C 30.3in /  1025.5hPa Oeste 7mph /  11.2km/h 14mph /  22.5km/h 34.7% 0in /  0.0mm
11:49 61.3 °F /  16.3 °C 33.4 °F /  0.8 °C 30.3in /  1025.5hPa ONO 7.6mph /  12.2km/h 12mph /  19.3km/h 34.9% 0in /  0.0mm
11:54 61.7 °F /  16.5 °C 33.6 °F /  0.9 °C 30.3in /  1025.5hPa ONO 6.8mph /  11km/h 20.8mph /  33.5km/h 35% 0in /  0.0mm
11:59 61.5 °F /  16.4 °C 33.6 °F /  0.9 °C 30.3in /  1025.3hPa ONO 6.2mph /  10km/h 21.9mph /  35.2km/h 35% 0in /  0.0mm
12:04 61.3 °F /  16.3 °C 34.2 °F /  1.2 °C 30.3in /  1025.3hPa ONO 9.9mph /  15.9km/h 22mph /  35.4km/h 35.9% 0in /  0.0mm
12:09 61.3 °F /  16.3 °C 34.5 °F /  1.4 °C 30.3in /  1025.3hPa ONO 12.5mph /  20.1km/h 20.7mph /  33.3km/h 36.7% 0in /  0.0mm
12:14 61.3 °F /  16.3 °C 34.3 °F /  1.3 °C 30.3in /  1025.1hPa ONO 12.4mph /  19.9km/h 23.5mph /  37.8km/h 36.3% 0in /  0.0mm
12:19 61.3 °F /  16.3 °C 34.7 °F /  1.5 °C 30.3in /  1025.1hPa Oeste 12.3mph /  19.8km/h 23mph /  37km/h 36.8% 0in /  0.0mm
12:24 61.7 °F /  16.5 °C 35.1 °F /  1.7 °C 30.3in /  1025.1hPa Oeste 11.8mph /  19km/h 21mph /  33.8km/h 36.8% 0in /  0.0mm
12:29 61.9 °F /  16.6 °C 35.2 °F /  1.8 °C 30.3in /  1024.8hPa Oeste 11.4mph /  18.4km/h 18mph /  29km/h 37% 0in /  0.0mm
12:34 62.1 °F /  16.7 °C 35.6 °F /  2 °C 30.3in /  1024.8hPa Oeste 9.6mph /  15.4km/h 14mph /  22.5km/h 37% 0in /  0.0mm
12:39 62.4 °F /  16.9 °C 35.2 °F /  1.8 °C 30.3in /  1024.8hPa ONO 8.1mph /  13km/h 18.5mph /  29.8km/h 36.1% 0in /  0.0mm
12:44 62.4 °F /  16.9 °C 35.1 °F /  1.7 °C 30.3in /  1024.7hPa ONO 8.3mph /  13.4km/h 19mph /  30.6km/h 36% 0in /  0.0mm
12:49 62.8 °F /  17.1 °C 35.2 °F /  1.8 °C 30.3in /  1024.7hPa ONO 8.5mph /  13.7km/h 18.5mph /  29.8km/h 35.8% 0in /  0.0mm
12:54 63 °F /  17.2 °C 35.4 °F /  1.9 °C 30.3in /  1024.7hPa ONO 9.4mph /  15.2km/h 19mph /  30.6km/h 36% 0in /  0.0mm
12:59 63.3 °F /  17.4 °C 35.6 °F /  2 °C 30.3in /  1024.4hPa Oeste 10.2mph /  16.4km/h 17mph /  27.4km/h 35.6% 0in /  0.0mm
13:04 63.5 °F /  17.5 °C 35.4 °F /  1.9 °C 30.3in /  1024.4hPa Oeste 9.6mph /  15.5km/h 17.3mph /  27.8km/h 35% 0in /  0.0mm
13:09 63.7 °F /  17.6 °C 35.1 °F /  1.7 °C 30.3in /  1024.4hPa Oeste 9.2mph /  14.8km/h 16.1mph /  25.9km/h 34.4% 0in /  0.0mm
13:14 63.9 °F /  17.7 °C 35.1 °F /  1.7 °C 30.2in /  1024.2hPa Oeste 9.2mph /  14.8km/h 16.1mph /  25.9km/h 34.3% 0in /  0.0mm
13:19 64 °F /  17.8 °C 35.8 °F /  2.1 °C 30.2in /  1024.2hPa ONO 9.2mph /  14.8km/h 16mph /  25.7km/h 35% 0in /  0.0mm
13:24 64.4 °F /  18 °C 36 °F /  2.2 °C 30.2in /  1024.2hPa ONO 8.6mph /  13.8km/h 14mph /  22.5km/h 34.9% 0in /  0.0mm
13:29 64.6 °F /  18.1 °C 36 °F /  2.2 °C 30.2in /  1024.0hPa Oeste 8.1mph /  13km/h 12.3mph /  19.8km/h 34.6% 0in /  0.0mm
13:34 64.8 °F /  18.2 °C 35.6 °F /  2 °C 30.2in /  1024.0hPa Oeste 7.1mph /  11.5km/h 14mph /  22.5km/h 34% 0in /  0.0mm
13:39 64.8 °F /  18.2 °C 35.8 °F /  2.1 °C 30.2in /  1024.0hPa OSO 6.4mph /  10.3km/h 14mph /  22.5km/h 33.9% 0in /  0.0mm
13:44 65.1 °F /  18.4 °C 35.2 °F /  1.8 °C 30.2in /  1023.8hPa ONO 6.4mph /  10.3km/h 14mph /  22.5km/h 33.1% 0in /  0.0mm
13:49 65.3 °F /  18.5 °C 35.1 °F /  1.7 °C 30.2in /  1023.8hPa Oeste 6.4mph /  10.3km/h 14.7mph /  23.7km/h 32.6% 0in /  0.0mm
13:54 65.5 °F /  18.6 °C 35.2 °F /  1.8 °C 30.2in /  1023.8hPa OSO 7.3mph /  11.8km/h 15.2mph /  24.5km/h 32.5% 0in /  0.0mm
13:59 65.7 °F /  18.7 °C 35.1 °F /  1.7 °C 30.2in /  1023.4hPa Oeste 8.1mph /  13km/h 15mph /  24.1km/h 32.2% 0in /  0.0mm
14:04 65.7 °F /  18.7 °C 34.9 °F /  1.6 °C 30.2in /  1023.4hPa Oeste 8.4mph /  13.6km/h 15mph /  24.1km/h 31.9% 0in /  0.0mm
14:09 66 °F /  18.9 °C 35.1 °F /  1.7 °C 30.2in /  1023.4hPa OSO 8.7mph /  14km/h 14mph /  22.5km/h 31.6% 0in /  0.0mm
14:14 66.4 °F /  19.1 °C 34.9 °F /  1.6 °C 30.2in /  1023.2hPa OSO 6.8mph /  11km/h 11.5mph /  18.5km/h 31.2% 0in /  0.0mm
14:19 66.6 °F /  19.2 °C 34.3 °F /  1.3 °C 30.2in /  1023.2hPa OSO 5.4mph /  8.7km/h 12.5mph /  20.1km/h 30.2% 0in /  0.0mm
14:24 66.6 °F /  19.2 °C 34.2 °F /  1.2 °C 30.2in /  1023.2hPa OSO 6.5mph /  10.5km/h 15mph /  24.1km/h 30% 0in /  0.0mm
14:29 66.6 °F /  19.2 °C 34.2 °F /  1.2 °C 30.2in /  1023.1hPa Oeste 7.4mph /  11.9km/h 15mph /  24.1km/h 30.1% 0in /  0.0mm
14:34 66.7 °F /  19.3 °C 34.3 °F /  1.3 °C 30.2in /  1023.1hPa ONO 8.1mph /  13.1km/h 15mph /  24.1km/h 30.2% 0in /  0.0mm
14:39 66.7 °F /  19.3 °C 34.3 °F /  1.3 °C 30.2in /  1023.1hPa ONO 8.7mph /  14km/h 15.2mph /  24.5km/h 30% 0in /  0.0mm
14:44 66.9 °F /  19.4 °C 34.7 °F /  1.5 °C 30.2in /  1022.9hPa ONO 8.1mph /  13km/h 15mph /  24.1km/h 30.3% 0in /  0.0mm
14:49 67.3 °F /  19.6 °C 34.7 °F /  1.5 °C 30.2in /  1022.9hPa Oeste 7.6mph /  12.2km/h 15mph /  24.1km/h 29.9% 0in /  0.0mm
14:54 67.5 °F /  19.7 °C 34.9 °F /  1.6 °C 30.2in /  1022.9hPa OSO 6.9mph /  11.1km/h 15mph /  24.1km/h 29.9% 0in /  0.0mm
14:59 67.5 °F /  19.7 °C 34.9 °F /  1.6 °C 30.2in /  1022.8hPa OSO 6.4mph /  10.3km/h 12mph /  19.3km/h 29.9% 0in /  0.0mm
15:04 67.5 °F /  19.7 °C 34.9 °F /  1.6 °C 30.2in /  1022.8hPa OSO 6.4mph /  10.3km/h 12mph /  19.3km/h 30% 0in /  0.0mm
15:09 67.6 °F /  19.8 °C 35.2 °F /  1.8 °C 30.2in /  1022.8hPa Oeste 6.4mph /  10.3km/h 10.7mph /  17.2km/h 30.1% 0in /  0.0mm
15:14 67.8 °F /  19.9 °C 35.2 °F /  1.8 °C 30.2in /  1022.7hPa ONO 6.3mph /  10.1km/h 14mph /  22.5km/h 30% 0in /  0.0mm
15:19 67.6 °F /  19.8 °C 34.5 °F /  1.4 °C 30.2in /  1022.7hPa Oeste 6.2mph /  10km/h 14mph /  22.5km/h 29.3% 0in /  0.0mm
15:24 67.8 °F /  19.9 °C 35.2 °F /  1.8 °C 30.2in /  1022.7hPa OSO 6.6mph /  10.6km/h 14mph /  22.5km/h 30% 0in /  0.0mm
15:29 67.8 °F /  19.9 °C 35.2 °F /  1.8 °C 30.2in /  1022.6hPa Oeste 6.9mph /  11.1km/h 12mph /  19.3km/h 29.9% 0in /  0.0mm
15:34 68 °F /  20 °C 35.4 °F /  1.9 °C 30.2in /  1022.6hPa Oeste 6.5mph /  10.5km/h 12mph /  19.3km/h 30% 0in /  0.0mm
15:39 68.2 °F /  20.1 °C 35.2 °F /  1.8 °C 30.2in /  1022.6hPa Oeste 6.2mph /  10km/h 11.5mph /  18.5km/h 29.7% 0in /  0.0mm
15:44 68.2 °F /  20.1 °C 35.4 °F /  1.9 °C 30.2in /  1022.4hPa Oeste 6mph /  9.7km/h 12.5mph /  20.1km/h 30% 0in /  0.0mm
15:49 68.2 °F /  20.1 °C 35.1 °F /  1.7 °C 30.2in /  1022.4hPa Oeste 5.9mph /  9.5km/h 13mph /  20.9km/h 29.4% 0in /  0.0mm
15:54 68 °F /  20 °C 35.6 °F /  2 °C 30.2in /  1022.4hPa Oeste 6.8mph /  10.9km/h 13mph /  20.9km/h 30.1% 0in /  0.0mm
15:59 68.2 °F /  20.1 °C 35.4 °F /  1.9 °C 30.2in /  1022.3hPa Oeste 7.4mph /  11.9km/h 12.7mph /  20.4km/h 30% 0in /  0.0mm
16:04 68.2 °F /  20.1 °C 35.1 °F /  1.7 °C 30.2in /  1022.3hPa Oeste 6.8mph /  11km/h 15.2mph /  24.5km/h 29.5% 0in /  0.0mm
16:09 68.2 °F /  20.1 °C 35.4 °F /  1.9 °C 30.2in /  1022.3hPa Oeste 6.4mph /  10.3km/h 15mph /  24.1km/h 30% 0in /  0.0mm
16:14 68.2 °F /  20.1 °C 35.4 °F /  1.9 °C 30.2in /  1022.3hPa Oeste 6.3mph /  10.1km/h 10mph /  16.1km/h 30% 0in /  0.0mm
16:19 68.2 °F /  20.1 °C 35.4 °F /  1.9 °C 30.2in /  1022.3hPa Oeste 6.2mph /  10km/h 9mph /  14.5km/h 30% 0in /  0.0mm
16:24 68.4 °F /  20.2 °C 35.8 °F /  2.1 °C 30.2in /  1022.3hPa Oeste 5mph /  8km/h 7.6mph /  12.2km/h 30.1% 0in /  0.0mm
16:29 68.4 °F /  20.2 °C 35.8 °F /  2.1 °C 30.2in /  1022.2hPa Oeste 4mph /  6.5km/h 8.1mph /  13km/h 30% 0in /  0.0mm
16:34 68.4 °F /  20.2 °C 35.8 °F /  2.1 °C 30.2in /  1022.2hPa Oeste 4mph /  6.5km/h 7mph /  11.3km/h 30% 0in /  0.0mm
16:39 68.4 °F /  20.2 °C 35.8 °F /  2.1 °C 30.2in /  1022.2hPa Oeste 4mph /  6.5km/h 7mph /  11.3km/h 30.1% 0in /  0.0mm
16:44 68.4 °F /  20.2 °C 36.5 °F /  2.5 °C 30.2in /  1022.2hPa Oeste 3.5mph /  5.6km/h 6mph /  9.7km/h 30.8% 0in /  0.0mm
16:49 68.5 °F /  20.3 °C 36.5 °F /  2.5 °C 30.2in /  1022.2hPa OSO 3.1mph /  5km/h 5mph /  8km/h 30.7% 0in /  0.0mm
16:54 68.5 °F /  20.3 °C 36 °F /  2.2 °C 30.2in /  1022.2hPa OSO 3mph /  4.8km/h 5.8mph /  9.3km/h 30% 0in /  0.0mm
16:59 68.5 °F /  20.3 °C 36.1 °F /  2.3 °C 30.2in /  1022.1hPa OSO 2.9mph /  4.7km/h 6mph /  9.7km/h 30.5% 0in /  0.0mm
17:04 68.4 °F /  20.2 °C 36.5 °F /  2.5 °C 30.2in /  1022.1hPa OSO 3mph /  4.8km/h 5.2mph /  8.4km/h 30.9% 0in /  0.0mm
17:09 68.4 °F /  20.2 °C 37 °F /  2.8 °C 30.2in /  1022.1hPa Oeste 3.1mph /  5km/h 10.7mph /  17.2km/h 31.7% 0in /  0.0mm
17:14 66.9 °F /  19.4 °C 42.1 °F /  5.6 °C 30.2in /  1022.1hPa NNE 3.6mph /  5.8km/h 11.2mph /  18km/h 40.6% 0in /  0.0mm
17:19 64.4 °F /  18 °C 43.7 °F /  6.5 °C 30.2in /  1022.1hPa NNE 4mph /  6.5km/h 12mph /  19.3km/h 47% 0in /  0.0mm
17:24 62.8 °F /  17.1 °C 44.2 °F /  6.8 °C 30.2in /  1022.3hPa NNE 5.3mph /  8.5km/h 9mph /  14.5km/h 50.7% 0in /  0.0mm
17:29 61.9 °F /  16.6 °C 44.6 °F /  7 °C 30.2in /  1022.3hPa North 6.2mph /  10km/h 8.1mph /  13km/h 53% 0in /  0.0mm
17:34 61.3 °F /  16.3 °C 44.8 °F /  7.1 °C 30.2in /  1022.3hPa North 5.1mph /  8.2km/h 8mph /  12.9km/h 54.5% 0in /  0.0mm
17:39 61 °F /  16.1 °C 44.6 °F /  7 °C 30.2in /  1022.3hPa North 4.3mph /  6.9km/h 8.5mph /  13.7km/h 55% 0in /  0.0mm
17:44 60.4 °F /  15.8 °C 44.2 °F /  6.8 °C 30.2in /  1022.3hPa North 4.2mph /  6.7km/h 9mph /  14.5km/h 55.1% 0in /  0.0mm
17:49 60.1 °F /  15.6 °C 44.1 °F /  6.7 °C 30.2in /  1022.3hPa North 4mph /  6.5km/h 8.1mph /  13km/h 55.2% 0in /  0.0mm
17:54 59.7 °F /  15.4 °C 43.5 °F /  6.4 °C 30.2in /  1022.4hPa North 3.8mph /  6.1km/h 8.5mph /  13.7km/h 55.1% 0in /  0.0mm
17:59 59.4 °F /  15.2 °C 43.7 °F /  6.5 °C 30.2in /  1022.4hPa North 3.6mph /  5.8km/h 9mph /  14.5km/h 56% 0in /  0.0mm
18:04 59.2 °F /  15.1 °C 43.5 °F /  6.4 °C 30.2in /  1022.4hPa North 3.6mph /  5.8km/h 7mph /  11.3km/h 56% 0in /  0.0mm
18:09 58.8 °F /  14.9 °C 43.5 °F /  6.4 °C 30.2in /  1022.4hPa North 3.6mph /  5.8km/h 6.2mph /  10km/h 56.9% 0in /  0.0mm
18:14 58.6 °F /  14.8 °C 43.3 °F /  6.3 °C 30.2in /  1022.4hPa NO 3.2mph /  5.1km/h 6mph /  9.7km/h 57% 0in /  0.0mm
18:19 58.5 °F /  14.7 °C 43.7 °F /  6.5 °C 30.2in /  1022.4hPa NO 2.9mph /  4.7km/h 5mph /  8km/h 58% 0in /  0.0mm
18:24 58.3 °F /  14.6 °C 43.5 °F /  6.4 °C 30.2in /  1022.5hPa ONO 2.6mph /  4.2km/h 5mph /  8km/h 58% 0in /  0.0mm
18:29 57.9 °F /  14.4 °C 43.3 °F /  6.3 °C 30.2in /  1022.5hPa OSO 2.4mph /  3.9km/h 4mph /  6.4km/h 58.1% 0in /  0.0mm
18:34 57.9 °F /  14.4 °C 43.7 °F /  6.5 °C 30.2in /  1022.5hPa ONO 2.1mph /  3.3km/h 4mph /  6.4km/h 59% 0in /  0.0mm
18:39 57.9 °F /  14.4 °C 43.7 °F /  6.5 °C 30.2in /  1022.5hPa NNO 1.8mph /  2.9km/h 5mph /  8km/h 59% 0in /  0.0mm
18:44 57.7 °F /  14.3 °C 43.9 °F /  6.6 °C 30.2in /  1022.5hPa NNO 2.4mph /  3.9km/h 5mph /  8km/h 59.8% 0in /  0.0mm
18:49 57.6 °F /  14.2 °C 43.9 °F /  6.6 °C 30.2in /  1022.5hPa NNO 2.9mph /  4.7km/h 5mph /  8km/h 60% 0in /  0.0mm
18:54 57.4 °F /  14.1 °C 44.1 °F /  6.7 °C 30.2in /  1022.5hPa NNO 2.9mph /  4.7km/h 5mph /  8km/h 60.8% 0in /  0.0mm
18:59 57.2 °F /  14 °C 43.9 °F /  6.6 °C 30.2in /  1022.3hPa NNO 2.9mph /  4.7km/h 5mph /  8km/h 61.1% 0in /  0.0mm
19:04 57 °F /  13.9 °C 44.1 °F /  6.7 °C 30.2in /  1022.3hPa NNO 2.4mph /  3.8km/h 4.6mph /  7.4km/h 62% 0in /  0.0mm
19:09 56.8 °F /  13.8 °C 44.1 °F /  6.7 °C 30.2in /  1022.4hPa NNO 2mph /  3.2km/h 5mph /  8km/h 62% 0in /  0.0mm
19:14 56.7 °F /  13.7 °C 44.2 °F /  6.8 °C 30.2in /  1022.4hPa North 2mph /  3.2km/h 5.2mph /  8.4km/h 62.9% 0in /  0.0mm
19:19 56.5 °F /  13.6 °C 44.1 °F /  6.7 °C 30.2in /  1022.4hPa SSO 2mph /  3.2km/h 5.8mph /  9.3km/h 63.2% 0in /  0.0mm
19:24 56.3 °F /  13.5 °C 44.2 °F /  6.8 °C 30.2in /  1022.5hPa OSO 2.6mph /  4.2km/h 6mph /  9.7km/h 64% 0in /  0.0mm
19:29 56.3 °F /  13.5 °C 44.2 °F /  6.8 °C 30.2in /  1022.5hPa OSO 3.1mph /  5km/h 5mph /  8km/h 64% 0in /  0.0mm
19:34 56.3 °F /  13.5 °C 44.2 °F /  6.8 °C 30.2in /  1022.5hPa SSE 3mph /  4.8km/h 5.9mph /  9.5km/h 64% 0in /  0.0mm
19:39 56.1 °F /  13.4 °C 44.2 °F /  6.8 °C 30.2in /  1022.5hPa SO 2.9mph /  4.7km/h 6mph /  9.7km/h 64% 0in /  0.0mm
19:44 56.1 °F /  13.4 °C 44.1 °F /  6.7 °C 30.2in /  1022.5hPa Oeste 2.6mph /  4.2km/h 4.6mph /  7.4km/h 64% 0in /  0.0mm
19:49 56.1 °F /  13.4 °C 44.1 °F /  6.7 °C 30.2in /  1022.5hPa OSO 2.4mph /  3.9km/h 5mph /  8km/h 64% 0in /  0.0mm
19:54 56.1 °F /  13.4 °C 44.1 °F /  6.7 °C 30.2in /  1022.5hPa SO 2.2mph /  3.5km/h 5mph /  8km/h 64% 0in /  0.0mm
19:59 56.1 °F /  13.4 °C 44.1 °F /  6.7 °C 30.2in /  1022.5hPa Sur 2mph /  3.2km/h 4.6mph /  7.4km/h 64% 0in /  0.0mm
20:04 55.8 °F /  13.2 °C 44.2 °F /  6.8 °C 30.2in /  1022.5hPa Este 1.9mph /  3km/h 5mph /  8km/h 65% 0in /  0.0mm
20:09 55.4 °F /  13 °C 44.2 °F /  6.8 °C 30.2in /  1022.5hPa ESE 1.8mph /  2.9km/h 5mph /  8km/h 66.1% 0in /  0.0mm
20:14 54.9 °F /  12.7 °C 44.2 °F /  6.8 °C 30.2in /  1022.5hPa SSE 2.1mph /  3.4km/h 5mph /  8km/h 67.5% 0in /  0.0mm
20:19 54.5 °F /  12.5 °C 44.4 °F /  6.9 °C 30.2in /  1022.5hPa SSO 2.4mph /  3.9km/h 5mph /  8km/h 68.8% 0in /  0.0mm
20:24 54.3 °F /  12.4 °C 44.4 °F /  6.9 °C 30.2in /  1022.5hPa SSO 2.1mph /  3.3km/h 4mph /  6.4km/h 69% 0in /  0.0mm
20:29 54.3 °F /  12.4 °C 44.4 °F /  6.9 °C 30.2in /  1022.5hPa Sur 1.8mph /  2.9km/h 3.6mph /  5.8km/h 69% 0in /  0.0mm
20:34 54.3 °F /  12.4 °C 44.4 °F /  6.9 °C 30.2in /  1022.5hPa SE 1.9mph /  3.1km/h 5.8mph /  9.3km/h 69% 0in /  0.0mm
20:39 54.1 °F /  12.3 °C 44.1 °F /  6.7 °C 30.2in /  1022.6hPa SSE 2mph /  3.2km/h 6mph /  9.7km/h 68.6% 0in /  0.0mm
20:44 54 °F /  12.2 °C 43.9 °F /  6.6 °C 30.2in /  1022.6hPa SSO 2.9mph /  4.7km/h 6mph /  9.7km/h 68.8% 0in /  0.0mm
20:49 54 °F /  12.2 °C 43.7 °F /  6.5 °C 30.2in /  1022.6hPa OSO 3.6mph /  5.8km/h 5mph /  8km/h 68.1% 0in /  0.0mm
20:54 53.8 °F /  12.1 °C 43.5 °F /  6.4 °C 30.2in /  1022.6hPa ONO 2.9mph /  4.6km/h 5mph /  8km/h 68.1% 0in /  0.0mm
20:59 53.4 °F /  11.9 °C 43.2 °F /  6.2 °C 30.2in /  1022.4hPa SO 2.4mph /  3.9km/h 4.7mph /  7.6km/h 67.9% 0in /  0.0mm
21:04 53.4 °F /  11.9 °C 42.8 °F /  6 °C 30.2in /  1022.4hPa Sur 2.7mph /  4.3km/h 5mph /  8km/h 67.1% 0in /  0.0mm
21:09 53.8 °F /  12.1 °C 43.3 °F /  6.3 °C 30.2in /  1022.4hPa Sur 2.9mph /  4.7km/h 5mph /  8km/h 67.7% 0in /  0.0mm
21:14 53.8 °F /  12.1 °C 43 °F /  6.1 °C 30.2in /  1022.3hPa SSO 2.9mph /  4.7km/h 8.5mph /  13.7km/h 66.6% 0in /  0.0mm
21:19 53.8 °F /  12.1 °C 42.6 °F /  5.9 °C 30.2in /  1022.3hPa SSO 2.9mph /  4.7km/h 9mph /  14.5km/h 65.6% 0in /  0.0mm
21:24 53.8 °F /  12.1 °C 42.3 °F /  5.7 °C 30.2in /  1022.3hPa SO 3.7mph /  6km/h 7mph /  11.3km/h 65% 0in /  0.0mm
21:29 53.6 °F /  12 °C 42.1 °F /  5.6 °C 30.2in /  1022.3hPa SO 4.3mph /  6.9km/h 6mph /  9.7km/h 65% 0in /  0.0mm
21:34 53.4 °F /  11.9 °C 41.9 °F /  5.5 °C 30.2in /  1022.3hPa Sur 3.6mph /  5.8km/h 6.9mph /  11.1km/h 65% 0in /  0.0mm
21:39 53.4 °F /  11.9 °C 42.1 °F /  5.6 °C 30.2in /  1022.3hPa SO 3.1mph /  5km/h 7mph /  11.3km/h 65.6% 0in /  0.0mm
21:44 53.4 °F /  11.9 °C 42.3 °F /  5.7 °C 30.2in /  1022.3hPa SSO 3.4mph /  5.4km/h 8.1mph /  13km/h 66% 0in /  0.0mm
21:49 53.4 °F /  11.9 °C 42.3 °F /  5.7 °C 30.2in /  1022.3hPa SO 3.6mph /  5.8km/h 8mph /  12.9km/h 66% 0in /  0.0mm
21:54 53.2 °F /  11.8 °C 42.3 °F /  5.7 °C 30.2in /  1022.3hPa SSO 3.2mph /  5.1km/h 6mph /  9.7km/h 66% 0in /  0.0mm
21:59 53.2 °F /  11.8 °C 41.9 °F /  5.5 °C 30.2in /  1022.2hPa Sur 2.9mph /  4.7km/h 5.8mph /  9.3km/h 65.2% 0in /  0.0mm
22:04 53.1 °F /  11.7 °C 41.5 °F /  5.3 °C 30.2in /  1022.2hPa Sur 3.3mph /  5.3km/h 8.5mph /  13.7km/h 65% 0in /  0.0mm
22:09 53.1 °F /  11.7 °C 41.5 °F /  5.3 °C 30.2in /  1022.3hPa SO 3.6mph /  5.8km/h 9mph /  14.5km/h 64.9% 0in /  0.0mm
22:14 53.2 °F /  11.8 °C 41.4 °F /  5.2 °C 30.2in /  1022.3hPa Sur 4.5mph /  7.2km/h 8.1mph /  13km/h 64% 0in /  0.0mm
22:19 53.2 °F /  11.8 °C 41.4 °F /  5.2 °C 30.2in /  1022.3hPa SSO 5.2mph /  8.4km/h 8.1mph /  13km/h 64% 0in /  0.0mm
22:24 53.1 °F /  11.7 °C 41.4 °F /  5.2 °C 30.2in /  1022.3hPa SSO 4.5mph /  7.3km/h 7mph /  11.3km/h 64% 0in /  0.0mm
22:29 53.1 °F /  11.7 °C 41 °F /  5 °C 30.2in /  1022.2hPa SSO 4mph /  6.5km/h 6mph /  9.7km/h 63.3% 0in /  0.0mm
22:34 53.1 °F /  11.7 °C 41.2 °F /  5.1 °C 30.2in /  1022.2hPa Sur 4mph /  6.5km/h 6mph /  9.7km/h 64% 0in /  0.0mm
22:39 52.9 °F /  11.6 °C 41 °F /  5 °C 30.2in /  1022.2hPa SSO 4mph /  6.5km/h 6.9mph /  11.1km/h 64% 0in /  0.0mm
22:44 52.5 °F /  11.4 °C 40.8 °F /  4.9 °C 30.2in /  1022.0hPa SO 4.2mph /  6.7km/h 7mph /  11.3km/h 64% 0in /  0.0mm
22:49 52.5 °F /  11.4 °C 40.5 °F /  4.7 °C 30.2in /  1022.0hPa SO 4.3mph /  6.9km/h 7mph /  11.3km/h 63.3% 0in /  0.0mm
22:54 52.7 °F /  11.5 °C 40.5 °F /  4.7 °C 30.2in /  1022.1hPa Sur 4.2mph /  6.7km/h 7.4mph /  11.9km/h 63% 0in /  0.0mm
22:59 52.5 °F /  11.4 °C 40.6 °F /  4.8 °C 30.2in /  1022.1hPa Sur 4mph /  6.5km/h 8.5mph /  13.7km/h 63.6% 0in /  0.0mm
23:04 52.3 °F /  11.3 °C 40.6 °F /  4.8 °C 30.2in /  1022.1hPa SSO 4.8mph /  7.8km/h 9mph /  14.5km/h 64% 0in /  0.0mm
23:09 52.3 °F /  11.3 °C 40.5 °F /  4.7 °C 30.2in /  1022.2hPa SSO 5.4mph /  8.7km/h 9mph /  14.5km/h 63.9% 0in /  0.0mm
23:14 52.3 °F /  11.3 °C 40.5 °F /  4.7 °C 30.2in /  1022.2hPa Sur 5.3mph /  8.5km/h 9.7mph /  15.6km/h 64% 0in /  0.0mm
23:19 52.2 °F /  11.2 °C 40.3 °F /  4.6 °C 30.2in /  1022.2hPa Sur 5.2mph /  8.4km/h 11.5mph /  18.5km/h 64% 0in /  0.0mm
23:24 51.8 °F /  11 °C 40.1 °F /  4.5 °C 30.2in /  1022.2hPa Sur 6.5mph /  10.5km/h 12mph /  19.3km/h 64% 0in /  0.0mm
23:29 51.8 °F /  11 °C 40.1 °F /  4.5 °C 30.2in /  1022.2hPa Sur 7.6mph /  12.2km/h 12mph /  19.3km/h 64% 0in /  0.0mm
23:34 52 °F /  11.1 °C 40.3 °F /  4.6 °C 30.2in /  1022.2hPa Sur 6.9mph /  11.1km/h 13.7mph /  22km/h 64% 0in /  0.0mm
23:39 52.2 °F /  11.2 °C 39.7 °F /  4.3 °C 30.2in /  1022.2hPa SSO 6.4mph /  10.3km/h 15mph /  24.1km/h 62.7% 0in /  0.0mm
23:44 52.5 °F /  11.4 °C 39.6 °F /  4.2 °C 30.2in /  1022.2hPa Sur 7.7mph /  12.4km/h 15mph /  24.1km/h 61.2% 0in /  0.0mm
23:49 53.1 °F /  11.7 °C 39.2 °F /  4 °C 30.2in /  1022.2hPa Sur 8.7mph /  14km/h 13mph /  20.9km/h 59.6% 0in /  0.0mm
23:54 53.2 °F /  11.8 °C 39 °F /  3.9 °C 30.2in /  1022.3hPa Sur 8.4mph /  13.5km/h 13mph /  20.9km/h 58.3% 0in /  0.0mm
23:59 53.6 °F /  12 °C 38.8 °F /  3.8 °C 30.2in /  1022.3hPa Sur 8.1mph /  13km/h 12mph /  19.3km/h 57.1% 0in /  0.0mm
Murcia-Puente Tocinos, España
Compliments of Weather Underground - 3 mb

La estación de MeteoMurcia.com, publica sus datos en los siguientes proyectos:

Weather Underground PWS IMURCIAP2 Meteoclimatic www.awekas.at

W3Counter
Web Analytics